»·PEaware :: TPX481 KLAS-KLGB

TPX481 :: KLAS-KLGB

FLIGHT INFORMATION

Flight Status: Arrived
Operator: ATP Experience
More flights by this operator :: More flights under this callsign
Pilot: Joe C. (3077)
Aircraft: BOEING 737-800
(B738)
More flights by this aircraft type
Origin: KLAS McCarran Intl
United States
Destination: KLGB Long Beach
United States
More flights between these airports :: More routes between these airports
Route: +MCCRN5 HEC KAYOH7
File this flight plan on PilotEdge
Remarks: Training wheels removed. Knee pads and helmet on!
Altitude:
(Current/Filed)
24,000ft
Speed:
(Current/Filed)
305kts
Departed: 21-Jul-18 06:00 PM
Arrived: 21-Jul-18 06:43 PM
Distance/Time
Traveled:
200nm/0:43
Distance/Time
To Go:
Arrived

Flight Plot

Page will automatically refresh every two minutes.

Flight plan parsing failed; only flown route is shown


Map Options




Map Legend


Flown Route
Filed Route
Departure Airport
Arrival Airport
Navaid (VOR, NDB)
Fix

Horizontal Profiles

Position Reports

Time Latitude Longitude Heading Altitude Ground
Speed
21-Jul-18 17:39 36.080289 -115.139323 315 2071ft 0kts
21-Jul-18 17:40 36.080289 -115.139323 315 2071ft 0kts
21-Jul-18 17:41 36.080289 -115.139323 315 2071ft 0kts
21-Jul-18 17:42 36.080289 -115.139323 315 2071ft 0kts
21-Jul-18 17:43 36.080289 -115.139323 315 2071ft 0kts
21-Jul-18 17:44 36.080289 -115.139323 315 2071ft 0kts
21-Jul-18 17:45 36.080289 -115.139323 315 2071ft 0kts
21-Jul-18 17:46 36.080289 -115.139323 315 2071ft 0kts
21-Jul-18 17:47 36.080289 -115.139323 315 2071ft 0kts
21-Jul-18 17:48 36.080289 -115.139323 314 2071ft 0kts
21-Jul-18 17:49 36.080164 -115.139201 334 2071ft 2kts
21-Jul-18 17:50 36.079580 -115.139179 7 2073ft 2kts
21-Jul-18 17:51 36.079246 -115.139031 246 2074ft 1kts
21-Jul-18 17:52 36.079295 -115.138948 226 2073ft 0kts
21-Jul-18 17:53 36.079295 -115.138948 226 2073ft 0kts
21-Jul-18 17:54 36.079295 -115.138948 226 2073ft 0kts
21-Jul-18 17:55 36.078527 -115.139759 205 2077ft 0kts
21-Jul-18 17:56 36.078527 -115.139759 205 2077ft 0kts
21-Jul-18 17:57 36.078520 -115.139763 205 2077ft 1kts
21-Jul-18 17:58 36.078292 -115.135367 88 2065ft 20kts
21-Jul-18 17:59 36.078334 -115.126574 86 2042ft 29kts
21-Jul-18 18:00 36.076425 -115.122353 267 2038ft 17kts
21-Jul-18 18:01 36.076121 -115.163583 266 2882ft 178kts
21-Jul-18 18:02 36.047202 -115.213541 199 4733ft 230kts
21-Jul-18 18:03 35.979554 -115.248626 201 6762ft 284kts
21-Jul-18 18:04 35.902369 -115.276420 191 8425ft 292kts
21-Jul-18 18:05 35.824402 -115.298614 191 11393ft 296kts
21-Jul-18 18:06 35.738396 -115.322225 191 13219ft 346kts
21-Jul-18 18:07 35.644084 -115.355678 213 16139ft 366kts
21-Jul-18 18:08 35.570515 -115.444466 224 19271ft 377kts
21-Jul-18 18:09 35.498676 -115.539675 225 21765ft 396kts
21-Jul-18 18:10 35.423114 -115.640952 225 24084ft 412kts
21-Jul-18 18:11 35.347326 -115.742260 224 24081ft 410kts
21-Jul-18 18:12 35.268078 -115.847340 224 24061ft 424kts
21-Jul-18 18:13 35.187931 -115.952859 224 24044ft 424kts
21-Jul-18 18:14 35.105508 -116.060971 224 24049ft 449kts
21-Jul-18 18:15 35.020331 -116.172424 224 24045ft 451kts
21-Jul-18 18:16 34.934931 -116.283837 224 24037ft 449kts
21-Jul-18 18:17 34.851273 -116.392605 224 24001ft 448kts
21-Jul-18 18:18 34.765504 -116.502370 222 23994ft 448kts
21-Jul-18 18:19 34.678437 -116.609512 222 23995ft 442kts
21-Jul-18 18:20 34.593843 -116.713174 222 23173ft 447kts
21-Jul-18 18:21 34.509521 -116.816274 222 20523ft 424kts
21-Jul-18 18:22 34.427576 -116.916122 223 17958ft 413kts
21-Jul-18 18:23 34.347968 -117.012860 223 15497ft 401kts
21-Jul-18 18:24 34.267825 -117.102138 206 13230ft 384kts
21-Jul-18 18:25 34.164294 -117.128727 186 12990ft 386kts
21-Jul-18 18:26 34.058148 -117.144324 186 12990ft 386kts
21-Jul-18 18:27 33.951977 -117.159925 186 12999ft 386kts
21-Jul-18 18:28 33.846726 -117.175409 187 13005ft 385kts
21-Jul-18 18:29 33.778106 -117.257892 258 10629ft 372kts
21-Jul-18 18:30 33.777321 -117.373824 269 9849ft 317kts
21-Jul-18 18:31 33.778610 -117.470624 269 9477ft 276kts
21-Jul-18 18:32 33.779618 -117.565058 269 7974ft 272kts
21-Jul-18 18:33 33.769711 -117.647885 252 7381ft 245kts
21-Jul-18 18:34 33.750209 -117.724746 251 6399ft 242kts
21-Jul-18 18:35 33.731176 -117.799504 251 5899ft 221kts
21-Jul-18 18:36 33.714359 -117.866205 251 5535ft 204kts
21-Jul-18 18:37 33.728521 -117.928689 301 4925ft 206kts
21-Jul-18 18:38 33.775720 -117.956968 12 4337ft 211kts
21-Jul-18 18:39 33.825475 -117.924793 351 3798ft 199kts
21-Jul-18 18:40 33.842967 -117.966374 231 3187ft 187kts
21-Jul-18 18:41 33.818061 -118.019398 273 2168ft 176kts
21-Jul-18 18:42 33.822158 -118.070995 273 965ft 145kts
21-Jul-18 18:43 33.822497 -118.117600 272 481ft 137kts
21-Jul-18 18:44 33.822778 -118.156570 269 53ft 32kts
21-Jul-18 18:45 33.821642 -118.156785 90 54ft 14kts
21-Jul-18 18:46 33.821684 -118.151547 90 47ft 22kts
21-Jul-18 18:47 33.819733 -118.146950 180 41ft 17kts
21-Jul-18 18:48 33.818207 -118.146149 90 39ft 0kts
21-Jul-18 18:49 33.818207 -118.146149 90 39ft 0kts
21-Jul-18 18:50 33.818207 -118.146149 90 39ft 0kts
21-Jul-18 18:51 33.818207 -118.146149 90 39ft 0kts
21-Jul-18 18:52 33.818207 -118.146149 90 39ft 0kts

Navigation Log

Ident Type
Flight plan parsing failed, navigation log unavailable